Neelyton, Pennsylvania
Current Conditions -  °F | °C
As of 4:53 PM on Saturday 25 Oct 2014 (Local Time) from KAOO Reporting Station
Clear Clear  
Wind Chill: 65°   Ceiling: Unl
Heat Index: 65°   Visibility: 10mi
Dew Point: 48°   Wind: 13mph
Humidity: 54%   Direction: 260°W
Pressure: 29.75"   Gusts: NA
Location:  40.16°N, 77.82°W
Report Text: KAOO 252053Z AUTO 26011KT 10SM CLR 18/09 A2975 RMK AO2 SLP073 T01830089 56024
Loading
Personal Weather Stations






























Interactive Weather Map
Tropical Storm Tracking
New forecast layout! Learn more

10-Day Weather Forecast

Advertisements
Track Severe Weather on mobile